sensor_id;sensor_type;location;lat;lon;timestamp;pressure;altitude;pressure_sealevel;temperature;humidity
17855;BME280;9053;53.358;6.382;2022-12-18T00:01:48;102751.81;;;-1.02;100.00
17855;BME280;9053;53.358;6.382;2022-12-18T00:04:20;102767.31;;;-1.02;100.00
17855;BME280;9053;53.358;6.382;2022-12-18T00:06:51;102760.34;;;-1.03;100.00
17855;BME280;9053;53.358;6.382;2022-12-18T00:09:21;102755.00;;;-1.04;100.00
17855;BME280;9053;53.358;6.382;2022-12-18T00:12:07;102759.25;;;-1.05;100.00
17855;BME280;9053;53.358;6.382;2022-12-18T00:14:44;102755.19;;;-1.03;100.00
17855;BME280;9053;53.358;6.382;2022-12-18T00:17:13;102752.75;;;-1.01;100.00
17855;BME280;9053;53.358;6.382;2022-12-18T00:19:43;102767.31;;;-1.02;100.00
17855;BME280;9053;53.358;6.382;2022-12-18T00:22:13;102763.25;;;-1.00;100.00
17855;BME280;9053;53.358;6.382;2022-12-18T00:24:43;102754.75;;;-0.99;100.00
17855;BME280;9053;53.358;6.382;2022-12-18T00:27:15;102760.84;;;-0.98;100.00
17855;BME280;9053;53.358;6.382;2022-12-18T00:29:45;102758.28;;;-0.98;100.00
17855;BME280;9053;53.358;6.382;2022-12-18T00:32:15;102761.91;;;-0.96;100.00
17855;BME280;9053;53.358;6.382;2022-12-18T00:34:44;102770.19;;;-0.92;100.00
17855;BME280;9053;53.358;6.382;2022-12-18T00:37:14;102768.34;;;-0.93;100.00
17855;BME280;9053;53.358;6.382;2022-12-18T00:39:48;102772.03;;;-0.91;100.00
17855;BME280;9053;53.358;6.382;2022-12-18T00:42:20;102766.09;;;-0.90;100.00
17855;BME280;9053;53.358;6.382;2022-12-18T00:45:03;102756.84;;;-0.88;100.00
17855;BME280;9053;53.358;6.382;2022-12-18T00:47:38;102758.69;;;-0.87;100.00
17855;BME280;9053;53.358;6.382;2022-12-18T00:50:09;102770.88;;;-0.85;100.00
17855;BME280;9053;53.358;6.382;2022-12-18T00:52:39;102770.88;;;-0.85;100.00
17855;BME280;9053;53.358;6.382;2022-12-18T00:55:10;102773.78;;;-0.82;100.00
17855;BME280;9053;53.358;6.382;2022-12-18T00:57:43;102773.94;;;-0.81;100.00
17855;BME280;9053;53.358;6.382;2022-12-18T01:00:14;102771.94;;;-0.83;100.00
17855;BME280;9053;53.358;6.382;2022-12-18T01:02:44;102772.69;;;-0.84;100.00
17855;BME280;9053;53.358;6.382;2022-12-18T01:05:15;102765.69;;;-0.85;100.00
17855;BME280;9053;53.358;6.382;2022-12-18T01:07:45;102766.88;;;-0.91;100.00
17855;BME280;9053;53.358;6.382;2022-12-18T01:10:14;102763.91;;;-0.94;100.00
17855;BME280;9053;53.358;6.382;2022-12-18T01:12:47;102768.75;;;-0.97;100.00
17855;BME280;9053;53.358;6.382;2022-12-18T01:15:17;102769.50;;;-0.98;100.00
17855;BME280;9053;53.358;6.382;2022-12-18T01:17:47;102784.63;;;-1.01;100.00
17855;BME280;9053;53.358;6.382;2022-12-18T01:20:17;102785.22;;;-1.03;100.00
17855;BME280;9053;53.358;6.382;2022-12-18T01:22:46;102790.38;;;-1.03;100.00
17855;BME280;9053;53.358;6.382;2022-12-18T01:25:16;102793.34;;;-1.00;100.00
17855;BME280;9053;53.358;6.382;2022-12-18T01:27:48;102796.66;;;-1.01;100.00
17855;BME280;9053;53.358;6.382;2022-12-18T01:30:18;102795.53;;;-1.03;100.00
17855;BME280;9053;53.358;6.382;2022-12-18T01:32:48;102796.50;;;-1.03;100.00
17855;BME280;9053;53.358;6.382;2022-12-18T01:35:18;102800.72;;;-1.03;100.00
17855;BME280;9053;53.358;6.382;2022-12-18T01:37:48;102797.97;;;-1.05;100.00
17855;BME280;9053;53.358;6.382;2022-12-18T01:40:18;102800.56;;;-1.05;100.00
17855;BME280;9053;53.358;6.382;2022-12-18T01:42:52;102809.22;;;-1.04;100.00
17855;BME280;9053;53.358;6.382;2022-12-18T01:45:25;102814.56;;;-1.03;100.00
17855;BME280;9053;53.358;6.382;2022-12-18T01:47:57;102813.81;;;-1.02;100.00
17855;BME280;9053;53.358;6.382;2022-12-18T01:50:31;102812.00;;;-1.03;100.00
17855;BME280;9053;53.358;6.382;2022-12-18T01:53:06;102812.72;;;-1.04;100.00
17855;BME280;9053;53.358;6.382;2022-12-18T01:55:39;102799.81;;;-1.04;100.00
17855;BME280;9053;53.358;6.382;2022-12-18T01:58:12;102804.25;;;-1.03;100.00
17855;BME280;9053;53.358;6.382;2022-12-18T02:00:42;102803.88;;;-1.06;100.00
17855;BME280;9053;53.358;6.382;2022-12-18T02:03:12;102811.28;;;-1.09;100.00
17855;BME280;9053;53.358;6.382;2022-12-18T02:05:45;102813.53;;;-1.12;100.00
17855;BME280;9053;53.358;6.382;2022-12-18T02:08:20;102815.19;;;-1.13;100.00
17855;BME280;9053;53.358;6.382;2022-12-18T02:10:58;102810.75;;;-1.14;100.00
17855;BME280;9053;53.358;6.382;2022-12-18T02:13:40;102813.53;;;-1.12;100.00
17855;BME280;9053;53.358;6.382;2022-12-18T02:16:19;102812.44;;;-1.14;100.00
17855;BME280;9053;53.358;6.382;2022-12-18T02:18:54;102809.13;;;-1.13;100.00
17855;BME280;9053;53.358;6.382;2022-12-18T02:21:32;102809.84;;;-1.14;100.00
17855;BME280;9053;53.358;6.382;2022-12-18T02:24:17;102798.63;;;-1.15;100.00
17855;BME280;9053;53.358;6.382;2022-12-18T02:26:51;102794.94;;;-1.17;100.00
17855;BME280;9053;53.358;6.382;2022-12-18T02:29:27;102788.69;;;-1.19;100.00
17855;BME280;9053;53.358;6.382;2022-12-18T02:32:00;102788.34;;;-1.22;100.00
17855;BME280;9053;53.358;6.382;2022-12-18T02:34:34;102784.50;;;-1.25;100.00
17855;BME280;9053;53.358;6.382;2022-12-18T02:37:10;102785.09;;;-1.28;100.00
17855;BME280;9053;53.358;6.382;2022-12-18T02:39:42;102783.09;;;-1.31;100.00
17855;BME280;9053;53.358;6.382;2022-12-18T02:42:17;102770.75;;;-1.33;100.00
17855;BME280;9053;53.358;6.382;2022-12-18T02:44:49;102770.56;;;-1.35;100.00
17855;BME280;9053;53.358;6.382;2022-12-18T02:47:21;102782.38;;;-1.37;100.00
17855;BME280;9053;53.358;6.382;2022-12-18T02:49:58;102782.59;;;-1.42;100.00
17855;BME280;9053;53.358;6.382;2022-12-18T02:52:34;102778.78;;;-1.46;100.00
17855;BME280;9053;53.358;6.382;2022-12-18T02:55:15;102781.00;;;-1.49;100.00
17855;BME280;9053;53.358;6.382;2022-12-18T02:57:52;102786.56;;;-1.53;100.00
17855;BME280;9053;53.358;6.382;2022-12-18T03:00:27;102776.97;;;-1.54;100.00
17855;BME280;9053;53.358;6.382;2022-12-18T03:03:03;102790.81;;;-1.54;100.00
17855;BME280;9053;53.358;6.382;2022-12-18T03:05:39;102792.81;;;-1.51;100.00
17855;BME280;9053;53.358;6.382;2022-12-18T03:08:15;102792.81;;;-1.51;100.00
17855;BME280;9053;53.358;6.382;2022-12-18T03:10:51;102799.81;;;-1.50;100.00
17855;BME280;9053;53.358;6.382;2022-12-18T03:13:28;102793.75;;;-1.50;100.00
17855;BME280;9053;53.358;6.382;2022-12-18T03:16:02;102789.50;;;-1.50;100.00
17855;BME280;9053;53.358;6.382;2022-12-18T03:18:36;102790.25;;;-1.51;100.00
17855;BME280;9053;53.358;6.382;2022-12-18T03:21:08;102785.47;;;-1.55;100.00
17855;BME280;9053;53.358;6.382;2022-12-18T03:23:40;102793.59;;;-1.59;100.00
17855;BME280;9053;53.358;6.382;2022-12-18T03:26:14;102791.00;;;-1.59;100.00
17855;BME280;9053;53.358;6.382;2022-12-18T03:28:51;102788.44;;;-1.59;100.00
17855;BME280;9053;53.358;6.382;2022-12-18T03:31:23;102793.59;;;-1.59;100.00
17855;BME280;9053;53.358;6.382;2022-12-18T03:33:57;102788.28;;;-1.61;100.00
17855;BME280;9053;53.358;6.382;2022-12-18T03:36:28;102788.84;;;-1.63;100.00
17855;BME280;9053;53.358;6.382;2022-12-18T03:38:58;102790.53;;;-1.64;100.00
17855;BME280;9053;53.358;6.382;2022-12-18T03:41:31;102799.16;;;-1.63;100.00
17855;BME280;9053;53.358;6.382;2022-12-18T03:44:11;102798.41;;;-1.62;100.00
17855;BME280;9053;53.358;6.382;2022-12-18T03:46:46;102803.56;;;-1.62;99.98
17855;BME280;9053;53.358;6.382;2022-12-18T03:49:25;102797.31;;;-1.64;99.97
17855;BME280;9053;53.358;6.382;2022-12-18T03:52:03;102791.44;;;-1.63;99.99
17855;BME280;9053;53.358;6.382;2022-12-18T03:54:35;102794.75;;;-1.64;99.87
17855;BME280;9053;53.358;6.382;2022-12-18T03:57:11;102784.97;;;-1.67;99.79
17855;BME280;9053;53.358;6.382;2022-12-18T03:59:48;102785.56;;;-1.69;99.64
17855;BME280;9053;53.358;6.382;2022-12-18T04:02:21;102782.06;;;-1.70;99.74
17855;BME280;9053;53.358;6.382;2022-12-18T04:04:53;102785.22;;;-1.72;99.63
17855;BME280;9053;53.358;6.382;2022-12-18T04:07:26;102781.53;;;-1.75;99.46
17855;BME280;9053;53.358;6.382;2022-12-18T04:09:58;102790.03;;;-1.76;99.42
17855;BME280;9053;53.358;6.382;2022-12-18T04:12:31;102794.28;;;-1.76;99.43
17855;BME280;9053;53.358;6.382;2022-12-18T04:15:04;102797.59;;;-1.77;99.38
17855;BME280;9053;53.358;6.382;2022-12-18T04:17:34;102791.50;;;-1.78;99.26
17855;BME280;9053;53.358;6.382;2022-12-18T04:20:05;102793.91;;;-1.79;99.18
17855;BME280;9053;53.358;6.382;2022-12-18T04:22:34;102801.50;;;-1.81;99.13
17855;BME280;9053;53.358;6.382;2022-12-18T04:25:05;102794.47;;;-1.82;99.00
17855;BME280;9053;53.358;6.382;2022-12-18T04:27:35;102799.47;;;-1.83;98.90
17855;BME280;9053;53.358;6.382;2022-12-18T04:30:08;102792.31;;;-1.86;98.89
17855;BME280;9053;53.358;6.382;2022-12-18T04:32:38;102794.69;;;-1.87;98.85
17855;BME280;9053;53.358;6.382;2022-12-18T04:35:14;102790.28;;;-1.88;98.66
17855;BME280;9053;53.358;6.382;2022-12-18T04:37:44;102792.69;;;-1.90;98.86
17855;BME280;9053;53.358;6.382;2022-12-18T04:40:14;102793.44;;;-1.91;98.68
17855;BME280;9053;53.358;6.382;2022-12-18T04:42:44;102796.75;;;-1.92;98.63
17855;BME280;9053;53.358;6.382;2022-12-18T04:45:16;102798.25;;;-1.94;98.44
17855;BME280;9053;53.358;6.382;2022-12-18T04:47:46;102789.75;;;-1.93;98.44
17855;BME280;9053;53.358;6.382;2022-12-18T04:50:16;102792.34;;;-1.93;98.36
17855;BME280;9053;53.358;6.382;2022-12-18T04:52:46;102793.09;;;-1.94;98.31
17855;BME280;9053;53.358;6.382;2022-12-18T04:55:16;102793.09;;;-1.94;98.13
17855;BME280;9053;53.358;6.382;2022-12-18T04:57:45;102797.16;;;-1.96;98.10
17855;BME280;9053;53.358;6.382;2022-12-18T05:00:18;102789.03;;;-1.99;98.15
17855;BME280;9053;53.358;6.382;2022-12-18T05:02:48;102793.84;;;-2.02;97.95
17855;BME280;9053;53.358;6.382;2022-12-18T05:05:18;102799.00;;;-2.02;97.83
17855;BME280;9053;53.358;6.382;2022-12-18T05:07:48;102796.44;;;-2.02;97.80
17855;BME280;9053;53.358;6.382;2022-12-18T05:10:18;102798.09;;;-2.03;97.88
17855;BME280;9053;53.358;6.382;2022-12-18T05:12:48;102797.19;;;-2.03;97.77
17855;BME280;9053;53.358;6.382;2022-12-18T05:15:32;102801.44;;;-2.04;97.81
17855;BME280;9053;53.358;6.382;2022-12-18T05:18:03;102804.72;;;-2.05;97.66
17855;BME280;9053;53.358;6.382;2022-12-18T05:20:33;102800.47;;;-2.04;97.65
17855;BME280;9053;53.358;6.382;2022-12-18T05:23:03;102803.81;;;-2.05;97.51
17855;BME280;9053;53.358;6.382;2022-12-18T05:25:33;102802.00;;;-2.06;97.50
17855;BME280;9053;53.358;6.382;2022-12-18T05:28:03;102802.00;;;-2.06;97.45
17855;BME280;9053;53.358;6.382;2022-12-18T05:30:35;102803.63;;;-2.07;97.41
17855;BME280;9053;53.358;6.382;2022-12-18T05:33:05;102807.72;;;-2.09;97.46
17855;BME280;9053;53.358;6.382;2022-12-18T05:35:35;102813.78;;;-2.08;97.26
17855;BME280;9053;53.358;6.382;2022-12-18T05:38:04;102807.53;;;-2.10;97.38
17855;BME280;9053;53.358;6.382;2022-12-18T05:40:34;102815.25;;;-2.10;97.21
17855;BME280;9053;53.358;6.382;2022-12-18T05:43:04;102811.56;;;-2.12;97.08
17855;BME280;9053;53.358;6.382;2022-12-18T05:45:39;102818.59;;;-2.11;97.04
17855;BME280;9053;53.358;6.382;2022-12-18T05:48:12;102816.75;;;-2.12;97.08
17855;BME280;9053;53.358;6.382;2022-12-18T05:50:44;102820.06;;;-2.13;96.91
17855;BME280;9053;53.358;6.382;2022-12-18T05:53:15;102825.22;;;-2.13;96.99
17855;BME280;9053;53.358;6.382;2022-12-18T05:55:46;102825.22;;;-2.13;96.94
17855;BME280;9053;53.358;6.382;2022-12-18T05:58:16;102837.00;;;-2.15;96.89
17855;BME280;9053;53.358;6.382;2022-12-18T06:00:50;102842.91;;;-2.16;96.73
17855;BME280;9053;53.358;6.382;2022-12-18T06:03:20;102838.31;;;-2.19;96.77
17855;BME280;9053;53.358;6.382;2022-12-18T06:05:57;102842.38;;;-2.21;96.65
17855;BME280;9053;53.358;6.382;2022-12-18T06:08:27;102842.19;;;-2.23;96.55
17855;BME280;9053;53.358;6.382;2022-12-18T06:10:57;102843.09;;;-2.22;96.52
17855;BME280;9053;53.358;6.382;2022-12-18T06:13:27;102847.19;;;-2.24;96.41
17855;BME280;9053;53.358;6.382;2022-12-18T06:16:01;102861.69;;;-2.25;96.42
17855;BME280;9053;53.358;6.382;2022-12-18T06:18:32;102854.91;;;-2.24;96.40
17855;BME280;9053;53.358;6.382;2022-12-18T06:21:02;102857.31;;;-2.26;96.32
17855;BME280;9053;53.358;6.382;2022-12-18T06:23:32;102847.75;;;-2.27;96.24
17855;BME280;9053;53.358;6.382;2022-12-18T06:26:06;102841.66;;;-2.27;96.22
17855;BME280;9053;53.358;6.382;2022-12-18T06:28:36;102837.06;;;-2.30;96.15
17855;BME280;9053;53.358;6.382;2022-12-18T06:31:10;102838.53;;;-2.32;96.03
17855;BME280;9053;53.358;6.382;2022-12-18T06:33:40;102835.78;;;-2.33;95.93
17855;BME280;9053;53.358;6.382;2022-12-18T06:36:12;102831.19;;;-2.36;95.78
17855;BME280;9053;53.358;6.382;2022-12-18T06:38:43;102835.03;;;-2.40;95.70
17855;BME280;9053;53.358;6.382;2022-12-18T06:41:15;102825.31;;;-2.42;95.71
17855;BME280;9053;53.358;6.382;2022-12-18T06:43:45;102820.53;;;-2.46;95.51
17855;BME280;9053;53.358;6.382;2022-12-18T06:46:17;102813.38;;;-2.49;95.43
17855;BME280;9053;53.358;6.382;2022-12-18T06:48:48;102812.06;;;-2.52;95.41
17855;BME280;9053;53.358;6.382;2022-12-18T06:51:20;102809.50;;;-2.52;95.29
17855;BME280;9053;53.358;6.382;2022-12-18T06:53:50;102807.47;;;-2.55;95.16
17855;BME280;9053;53.358;6.382;2022-12-18T06:56:22;102794.44;;;-2.56;95.05
17855;BME280;9053;53.358;6.382;2022-12-18T06:58:52;102791.50;;;-2.59;94.92
17855;BME280;9053;53.358;6.382;2022-12-18T07:01:25;102801.97;;;-2.58;95.04
17855;BME280;9053;53.358;6.382;2022-12-18T07:03:56;102802.91;;;-2.57;94.86
17855;BME280;9053;53.358;6.382;2022-12-18T07:06:26;102806.41;;;-2.57;94.78
17855;BME280;9053;53.358;6.382;2022-12-18T07:08:56;102808.03;;;-2.57;94.74
17855;BME280;9053;53.358;6.382;2022-12-18T07:11:25;102795.16;;;-2.57;94.67
17855;BME280;9053;53.358;6.382;2022-12-18T07:13:56;102801.41;;;-2.55;94.61
17855;BME280;9053;53.358;6.382;2022-12-18T07:16:28;102793.69;;;-2.55;94.50
17855;BME280;9053;53.358;6.382;2022-12-18T07:18:58;102791.13;;;-2.55;94.42
17855;BME280;9053;53.358;6.382;2022-12-18T07:21:28;102785.97;;;-2.55;94.31
17855;BME280;9053;53.358;6.382;2022-12-18T07:23:57;102791.69;;;-2.58;94.30
17855;BME280;9053;53.358;6.382;2022-12-18T07:26:27;102781.22;;;-2.59;94.33
17855;BME280;9053;53.358;6.382;2022-12-18T07:28:57;102789.50;;;-2.62;94.21
17855;BME280;9053;53.358;6.382;2022-12-18T07:31:30;102783.41;;;-2.63;94.24
17855;BME280;9053;53.358;6.382;2022-12-18T07:34:00;102792.59;;;-2.65;94.16
17855;BME280;9053;53.358;6.382;2022-12-18T07:36:30;102791.69;;;-2.65;94.00
17855;BME280;9053;53.358;6.382;2022-12-18T07:39:00;102790.03;;;-2.65;94.08
17855;BME280;9053;53.358;6.382;2022-12-18T07:41:30;102780.66;;;-2.64;93.92
17855;BME280;9053;53.358;6.382;2022-12-18T07:44:00;102790.97;;;-2.64;93.95
17855;BME280;9053;53.358;6.382;2022-12-18T07:46:34;102791.88;;;-2.64;93.85
17855;BME280;9053;53.358;6.382;2022-12-18T07:49:04;102795.56;;;-2.62;94.04
17855;BME280;9053;53.358;6.382;2022-12-18T07:51:34;102801.63;;;-2.61;93.93
17855;BME280;9053;53.358;6.382;2022-12-18T07:54:04;102802.53;;;-2.61;93.79
17855;BME280;9053;53.358;6.382;2022-12-18T07:56:34;102793.91;;;-2.61;93.77
17855;BME280;9053;53.358;6.382;2022-12-18T07:59:04;102798.28;;;-2.60;93.80
17855;BME280;9053;53.358;6.382;2022-12-18T08:01:36;102799.59;;;-2.56;93.77
17855;BME280;9053;53.358;6.382;2022-12-18T08:04:08;102813.75;;;-2.53;93.73
17855;BME280;9053;53.358;6.382;2022-12-18T08:06:38;102815.75;;;-2.50;93.74
17855;BME280;9053;53.358;6.382;2022-12-18T08:09:13;102803.06;;;-2.49;93.79
17855;BME280;9053;53.358;6.382;2022-12-18T08:11:43;102791.44;;;-2.45;93.75
17855;BME280;9053;53.358;6.382;2022-12-18T08:14:13;102789.78;;;-2.45;93.70
17855;BME280;9053;53.358;6.382;2022-12-18T08:16:45;102788.50;;;-2.41;93.74
17855;BME280;9053;53.358;6.382;2022-12-18T08:19:15;102784.44;;;-2.39;93.66
17855;BME280;9053;53.358;6.382;2022-12-18T08:21:45;102787.19;;;-2.37;93.68
17855;BME280;9053;53.358;6.382;2022-12-18T08:24:15;102785.91;;;-2.34;93.81
17855;BME280;9053;53.358;6.382;2022-12-18T08:26:45;102784.25;;;-2.33;93.84
17855;BME280;9053;53.358;6.382;2022-12-18T08:29:37;102780.91;;;-2.32;93.84
17855;BME280;9053;53.358;6.382;2022-12-18T08:32:09;102777.03;;;-2.29;93.75
17855;BME280;9053;53.358;6.382;2022-12-18T08:34:39;102791.19;;;-2.25;93.80
17855;BME280;9053;53.358;6.382;2022-12-18T08:37:09;102787.16;;;-2.23;93.86
17855;BME280;9053;53.358;6.382;2022-12-18T08:39:39;102790.06;;;-2.20;93.88
17855;BME280;9053;53.358;6.382;2022-12-18T08:42:09;102793.94;;;-2.16;93.88
17855;BME280;9053;53.358;6.382;2022-12-18T08:44:51;102792.44;;;-2.14;93.94
17855;BME280;9053;53.358;6.382;2022-12-18T08:47:23;102800.34;;;-2.13;93.83
17855;BME280;9053;53.358;6.382;2022-12-18T08:49:53;102806.41;;;-2.12;94.00
17855;BME280;9053;53.358;6.382;2022-12-18T08:52:23;102816.16;;;-2.10;93.98
17855;BME280;9053;53.358;6.382;2022-12-18T08:54:54;102821.69;;;-2.07;93.97
17855;BME280;9053;53.358;6.382;2022-12-18T08:57:24;102812.66;;;-2.03;93.89
17855;BME280;9053;53.358;6.382;2022-12-18T08:59:54;102817.41;;;-1.99;93.96
17855;BME280;9053;53.358;6.382;2022-12-18T09:02:27;102823.66;;;-1.97;93.95
17855;BME280;9053;53.358;6.382;2022-12-18T09:04:57;102826.63;;;-1.94;94.03
17855;BME280;9053;53.358;6.382;2022-12-18T09:07:26;102822.16;;;-1.88;94.11
17855;BME280;9053;53.358;6.382;2022-12-18T09:09:56;102825.44;;;-1.82;94.06
17855;BME280;9053;53.358;6.382;2022-12-18T09:12:26;102819.69;;;-1.79;94.20
17855;BME280;9053;53.358;6.382;2022-12-18T09:14:56;102819.13;;;-1.77;94.23
17855;BME280;9053;53.358;6.382;2022-12-18T09:17:28;102820.41;;;-1.73;94.19
17855;BME280;9053;53.358;6.382;2022-12-18T09:19:58;102813.22;;;-1.68;94.20
17855;BME280;9053;53.358;6.382;2022-12-18T09:22:28;102812.06;;;-1.63;94.23
17855;BME280;9053;53.358;6.382;2022-12-18T09:24:58;102813.16;;;-1.61;94.30
17855;BME280;9053;53.358;6.382;2022-12-18T09:27:28;102807.59;;;-1.57;94.38
17855;BME280;9053;53.358;6.382;2022-12-18T09:29:58;102803.88;;;-1.52;94.42
17855;BME280;9053;53.358;6.382;2022-12-18T09:32:30;102800.00;;;-1.48;94.47
17855;BME280;9053;53.358;6.382;2022-12-18T09:35:00;102789.09;;;-1.46;94.51
17855;BME280;9053;53.358;6.382;2022-12-18T09:40:59;102790.69;;;-1.39;94.47
17855;BME280;9053;53.358;6.382;2022-12-18T09:43:40;102798.78;;;-1.36;94.60
17855;BME280;9053;53.358;6.382;2022-12-18T09:46:17;102800.06;;;-1.33;94.52
17855;BME280;9053;53.358;6.382;2022-12-18T09:48:56;102784.56;;;-1.33;94.55
17855;BME280;9053;53.358;6.382;2022-12-18T09:51:32;102783.09;;;-1.31;94.57
17855;BME280;9053;53.358;6.382;2022-12-18T09:54:07;102771.41;;;-1.27;94.71
17855;BME280;9053;53.358;6.382;2022-12-18T09:56:41;102772.84;;;-1.22;94.67
17855;BME280;9053;53.358;6.382;2022-12-18T09:59:20;102778.34;;;-1.19;94.76
17855;BME280;9053;53.358;6.382;2022-12-18T10:01:51;102782.59;;;-1.19;94.81
17855;BME280;9053;53.358;6.382;2022-12-18T10:04:24;102782.38;;;-1.14;94.69
17855;BME280;9053;53.358;6.382;2022-12-18T10:07:03;102782.88;;;-1.09;94.79
17855;BME280;9053;53.358;6.382;2022-12-18T10:09:40;102782.50;;;-1.05;94.90
17855;BME280;9053;53.358;6.382;2022-12-18T10:12:17;102777.66;;;-1.02;94.78
17855;BME280;9053;53.358;6.382;2022-12-18T10:14:54;102774.69;;;-0.98;94.79
17855;BME280;9053;53.358;6.382;2022-12-18T10:17:33;102772.69;;;-1.00;94.88
17855;BME280;9053;53.358;6.382;2022-12-18T10:20:15;102775.06;;;-1.02;94.92
17855;BME280;9053;53.358;6.382;2022-12-18T10:22:52;102774.50;;;-0.99;94.90
17855;BME280;9053;53.358;6.382;2022-12-18T10:25:31;102765.44;;;-0.96;94.80
17855;BME280;9053;53.358;6.382;2022-12-18T10:28:10;102764.88;;;-0.93;94.88
17855;BME280;9053;53.358;6.382;2022-12-18T10:30:42;102747.69;;;-0.93;94.87
17855;BME280;9053;53.358;6.382;2022-12-18T10:33:13;102749.63;;;-0.83;94.96
17855;BME280;9053;53.358;6.382;2022-12-18T10:35:51;102744.03;;;-0.79;94.98
17855;BME280;9053;53.358;6.382;2022-12-18T10:38:24;102737.75;;;-0.81;94.87
17855;BME280;9053;53.358;6.382;2022-12-18T10:40:56;102738.28;;;-0.76;94.84
17855;BME280;9053;53.358;6.382;2022-12-18T10:43:28;102733.28;;;-0.75;94.85
17855;BME280;9053;53.358;6.382;2022-12-18T10:46:07;102736.00;;;-0.73;94.90
17855;BME280;9053;53.358;6.382;2022-12-18T10:48:51;102723.09;;;-0.73;94.80
17855;BME280;9053;53.358;6.382;2022-12-18T10:51:27;102710.19;;;-0.73;94.91
17855;BME280;9053;53.358;6.382;2022-12-18T10:54:00;102707.78;;;-0.72;94.80
17855;BME280;9053;53.358;6.382;2022-12-18T10:56:34;102704.41;;;-0.71;94.81
17855;BME280;9053;53.358;6.382;2022-12-18T10:59:06;102711.59;;;-0.68;94.98
17855;BME280;9053;53.358;6.382;2022-12-18T11:01:46;102712.09;;;-0.63;94.82
17855;BME280;9053;53.358;6.382;2022-12-18T11:04:19;102701.19;;;-0.61;95.01
17855;BME280;9053;53.358;6.382;2022-12-18T11:06:58;102701.63;;;-0.65;94.88
17855;BME280;9053;53.358;6.382;2022-12-18T11:09:30;102706.41;;;-0.68;94.91
17855;BME280;9053;53.358;6.382;2022-12-18T11:12:02;102708.09;;;-0.69;94.78
17855;BME280;9053;53.358;6.382;2022-12-18T11:14:35;102699.44;;;-0.69;94.71
17855;BME280;9053;53.358;6.382;2022-12-18T11:17:18;102694.09;;;-0.71;94.70
17855;BME280;9053;53.358;6.382;2022-12-18T11:19:53;102678.25;;;-0.74;94.76
17855;BME280;9053;53.358;6.382;2022-12-18T11:22:28;102677.16;;;-0.76;94.65
17855;BME280;9053;53.358;6.382;2022-12-18T11:24:59;102680.25;;;-0.71;94.55
17855;BME280;9053;53.358;6.382;2022-12-18T11:27:58;102687.78;;;-0.66;94.71
17855;BME280;9053;53.358;6.382;2022-12-18T11:30:30;102686.44;;;-0.62;94.65
17855;BME280;9053;53.358;6.382;2022-12-18T11:33:08;102681.59;;;-0.59;94.57
17855;BME280;9053;53.358;6.382;2022-12-18T11:35:44;102681.19;;;-0.55;94.64
17855;BME280;9053;53.358;6.382;2022-12-18T11:38:24;102674.75;;;-0.58;94.61
17855;BME280;9053;53.358;6.382;2022-12-18T11:40:59;102676.00;;;-0.55;94.56
17855;BME280;9053;53.358;6.382;2022-12-18T11:43:31;102667.66;;;-0.52;94.55
17855;BME280;9053;53.358;6.382;2022-12-18T11:46:07;102652.66;;;-0.48;94.61
17855;BME280;9053;53.358;6.382;2022-12-18T11:48:49;102640.78;;;-0.46;94.60
17855;BME280;9053;53.358;6.382;2022-12-18T11:51:25;102633.22;;;-0.44;94.55
17855;BME280;9053;53.358;6.382;2022-12-18T11:54:00;102634.13;;;-0.44;94.51
17855;BME280;9053;53.358;6.382;2022-12-18T11:56:45;102639.28;;;-0.44;94.55
17855;BME280;9053;53.358;6.382;2022-12-18T11:59:21;102632.63;;;-0.41;94.56
17855;BME280;9053;53.358;6.382;2022-12-18T12:02:03;102636.59;;;-0.36;94.58
17855;BME280;9053;53.358;6.382;2022-12-18T12:07:42;102616.91;;;-0.27;94.45
17855;BME280;9053;53.358;6.382;2022-12-18T12:10:26;102604.28;;;-0.24;94.62
17855;BME280;9053;53.358;6.382;2022-12-18T12:13:24;102590.59;;;-0.23;94.58
17855;BME280;9053;53.358;6.382;2022-12-18T12:16:06;102599.28;;;-0.23;94.57
17855;BME280;9053;53.358;6.382;2022-12-18T12:19:05;102587.69;;;-0.26;94.58
17855;BME280;9053;53.358;6.382;2022-12-18T12:21:40;102582.84;;;-0.23;94.46
17855;BME280;9053;53.358;6.382;2022-12-18T12:24:22;102581.66;;;-0.18;94.56
17855;BME280;9053;53.358;6.382;2022-12-18T12:27:05;102564.03;;;-0.13;94.52
17855;BME280;9053;53.358;6.382;2022-12-18T12:30:00;102561.00;;;-0.09;94.52
17855;BME280;9053;53.358;6.382;2022-12-18T12:32:49;102564.09;;;-0.05;94.49
17855;BME280;9053;53.358;6.382;2022-12-18T12:35:31;102564.56;;;0.00;94.49
17855;BME280;9053;53.358;6.382;2022-12-18T12:38:09;102550.84;;;0.01;94.52
17855;BME280;9053;53.358;6.382;2022-12-18T12:40:45;102548.09;;;-0.01;94.51
17855;BME280;9053;53.358;6.382;2022-12-18T12:43:35;102533.53;;;0.00;94.36
17855;BME280;9053;53.358;6.382;2022-12-18T12:46:17;102528.19;;;-0.02;94.44
17855;BME280;9053;53.358;6.382;2022-12-18T12:48:53;102519.66;;;-0.01;94.46
17855;BME280;9053;53.358;6.382;2022-12-18T12:51:28;102515.41;;;0.00;94.41
17855;BME280;9053;53.358;6.382;2022-12-18T12:53:59;102507.78;;;0.02;94.36
17855;BME280;9053;53.358;6.382;2022-12-18T12:56:36;102514.81;;;0.03;94.37
17855;BME280;9053;53.358;6.382;2022-12-18T12:59:15;102506.13;;;0.02;94.32
17855;BME280;9053;53.358;6.382;2022-12-18T13:01:54;102505.97;;;0.01;94.31
17855;BME280;9053;53.358;6.382;2022-12-18T13:04:34;102503.38;;;0.01;94.24
17855;BME280;9053;53.358;6.382;2022-12-18T13:07:12;102506.88;;;0.01;94.34
17855;BME280;9053;53.358;6.382;2022-12-18T13:10:23;102499.28;;;0.03;94.29
17855;BME280;9053;53.358;6.382;2022-12-18T13:12:57;102501.41;;;0.07;94.28
17855;BME280;9053;53.358;6.382;2022-12-18T13:15:31;102492.91;;;0.08;94.31
17855;BME280;9053;53.358;6.382;2022-12-18T13:18:16;102494.91;;;0.10;94.30
17855;BME280;9053;53.358;6.382;2022-12-18T13:20:49;102486.53;;;0.13;94.23
17855;BME280;9053;53.358;6.382;2022-12-18T13:23:30;102486.84;;;0.16;94.27
17855;BME280;9053;53.358;6.382;2022-12-18T13:26:29;102485.63;;;0.21;94.34
17855;BME280;9053;53.358;6.382;2022-12-18T13:29:01;102482.44;;;0.24;94.37
17855;BME280;9053;53.358;6.382;2022-12-18T13:32:00;102472.22;;;0.25;94.34
17855;BME280;9053;53.358;6.382;2022-12-18T13:34:31;102457.66;;;0.26;94.32
17855;BME280;9053;53.358;6.382;2022-12-18T13:43:39;102463.59;;;0.33;94.38
17855;BME280;9053;53.358;6.382;2022-12-18T13:46:21;102459.50;;;0.35;94.26